Time;durP1;ratioP1;P1;durP2;ratioP2;P2;SDS_P1;SDS_P2;PMS_P1;PMS_P2;Temp;Humidity;BMP_temperature;BMP_pressure;BME280_temperature;BME280_humidity;BME280_pressure;Samples;Min_cycle;Max_cycle;Signal;HPM_P1;HPM_P2
2021/04/29 00:00:32;;;;;;;20.17;11.27;;;;;;;8.08;nan;100498.69;5034548;28;20183;-48
2021/04/29 00:02:58;;;;;;;20.67;11.57;;;;;;;8.04;nan;100496.72;5032837;28;20029;-49
2021/04/29 00:05:27;;;;;;;18.75;10.75;;;;;;;8.04;nan;100496.72;5034936;28;20535;-50
2021/04/29 00:07:52;;;;;;;18.17;11.95;;;;;;;8.07;nan;100496.25;5032413;28;20017;-48
2021/04/29 00:10:21;;;;;;;19.40;11.15;;;;;;;7.98;nan;100495.81;5028417;28;20060;-47
2021/04/29 00:12:47;;;;;;;21.75;11.63;;;;;;;7.92;nan;100494.09;5035155;28;20029;-47
2021/04/29 00:15:14;;;;;;;17.08;11.23;;;;;;;7.92;nan;100494.09;5031999;28;20040;-48
2021/04/29 00:17:40;;;;;;;18.63;10.88;;;;;;;7.85;nan;100498.75;5035178;28;20100;-48
2021/04/29 00:20:11;;;;;;;18.65;11.80;;;;;;;7.77;nan;100491.94;5033080;28;20117;-50
2021/04/29 00:22:37;;;;;;;17.48;10.57;;;;;;;7.81;nan;100489.59;5035881;28;20033;-48
2021/04/29 00:25:04;;;;;;;18.58;10.80;;;;;;;7.82;nan;100491.22;5031801;28;20025;-49
2021/04/29 00:27:29;;;;;;;20.38;12.07;;;;;;;7.79;nan;100489.84;5030560;28;20471;-48
2021/04/29 00:29:55;;;;;;;19.88;11.13;;;;;;;7.81;nan;100492.28;5039388;28;20071;-46
2021/04/29 00:32:20;;;;;;;20.23;12.77;;;;;;;7.79;nan;100494.38;5032378;28;20060;-48
2021/04/29 00:34:46;;;;;;;20.38;12.50;;;;;;;7.70;nan;100496.56;5033744;28;20033;-47
2021/04/29 00:37:11;;;;;;;19.83;11.95;;;;;;;7.68;nan;100496.00;5032087;28;20127;-48
2021/04/29 00:39:37;;;;;;;23.50;12.85;;;;;;;7.70;nan;100487.75;5035001;28;20036;-49
2021/04/29 00:42:02;;;;;;;22.70;12.30;;;;;;;7.67;nan;100491.72;5035582;28;20485;-49
2021/04/29 00:44:28;;;;;;;19.42;12.75;;;;;;;7.58;nan;100495.81;5036053;28;20036;-48
2021/04/29 00:46:57;;;;;;;24.85;13.27;;;;;;;7.62;nan;100493.47;5035179;28;20024;-48
2021/04/29 00:49:22;;;;;;;21.50;12.30;;;;;;;7.48;nan;100488.38;5036014;28;20029;-47
2021/04/29 00:51:48;;;;;;;20.08;12.00;;;;;;;7.39;nan;100494.31;5035869;28;20029;-48
2021/04/29 00:54:13;;;;;;;22.98;12.63;;;;;;;7.24;nan;100492.13;5032215;28;20037;-48
2021/04/29 00:56:39;;;;;;;26.15;13.27;;;;;;;7.20;nan;100485.63;5032619;28;20025;-49
2021/04/29 00:59:05;;;;;;;19.83;12.25;;;;;;;7.19;nan;100490.16;5034246;28;20025;-48
2021/04/29 01:01:31;;;;;;;20.33;12.77;;;;;;;7.21;nan;100488.06;5038060;28;20534;-48
2021/04/29 01:04:02;;;;;;;24.17;12.30;;;;;;;7.16;nan;100487.13;5030621;28;20940;-48
2021/04/29 01:06:43;;;;;;;21.42;11.40;;;;;;;7.10;nan;100490.72;5036483;28;20036;-48
2021/04/29 01:09:24;;;;;;;18.65;11.55;;;;;;;7.09;nan;100491.75;5031017;28;20356;-50
2021/04/29 01:11:58;;;;;;;20.13;12.65;;;;;;;7.14;nan;100486.53;5036685;28;20029;-50
2021/04/29 01:14:26;;;;;;;20.00;12.05;;;;;;;7.13;nan;100490.25;5037500;28;20056;-51
2021/04/29 01:16:52;;;;;;;20.58;11.93;;;;;;;7.11;nan;100487.00;5040944;28;20495;-48
2021/04/29 01:19:18;;;;;;;22.65;13.25;;;;;;;7.09;nan;100483.78;5032621;28;20033;-48
2021/04/29 01:21:45;;;;;;;20.60;12.60;;;;;;;7.10;nan;100482.72;5033549;28;20044;-50
2021/04/29 01:24:25;;;;;;;20.70;11.80;;;;;;;6.98;nan;100486.19;5030640;28;20060;-48
2021/04/29 01:27:00;;;;;;;19.10;11.98;;;;;;;6.93;nan;100475.41;5037299;28;20040;-48
2021/04/29 01:29:31;;;;;;;20.08;12.00;;;;;;;6.87;nan;100480.88;5036091;28;20035;-49
2021/04/29 01:31:58;;;;;;;27.42;11.55;;;;;;;6.83;nan;100493.84;5031679;28;20041;-49
2021/04/29 01:34:26;;;;;;;20.30;11.43;;;;;;;6.76;nan;100485.13;5038361;28;20025;-51
2021/04/29 01:36:53;;;;;;;18.77;12.13;;;;;;;6.68;nan;100482.81;5032902;28;20025;-48
2021/04/29 01:39:19;;;;;;;19.25;11.68;;;;;;;6.61;nan;100484.75;5037504;28;20107;-50
2021/04/29 01:41:48;;;;;;;18.70;11.88;;;;;;;6.59;nan;100484.97;5033403;28;20492;-48
2021/04/29 01:44:15;;;;;;;19.30;12.57;;;;;;;6.52;nan;100486.13;5035979;28;20037;-49
2021/04/29 01:46:42;;;;;;;20.00;11.80;;;;;;;6.48;nan;100482.28;5034357;28;20450;-49
2021/04/29 01:49:09;;;;;;;20.92;12.27;;;;;;;6.35;nan;100481.44;5038221;28;20036;-49
2021/04/29 01:51:36;;;;;;;18.30;11.98;;;;;;;6.29;nan;100482.34;5036951;28;20032;-51
2021/04/29 01:54:03;;;;;;;21.95;12.13;;;;;;;6.26;nan;100474.81;5034261;28;20099;-48
2021/04/29 01:56:29;;;;;;;19.85;12.20;;;;;;;6.23;nan;100475.25;5033121;28;20476;-48
2021/04/29 01:58:55;;;;;;;24.65;12.75;;;;;;;6.18;nan;100469.81;5033438;28;20044;-50
2021/04/29 02:01:21;;;;;;;17.35;11.02;;;;;;;6.14;nan;100475.81;5033143;28;20456;-48
2021/04/29 02:03:47;;;;;;;21.23;12.30;;;;;;;6.07;nan;100466.06;5031154;28;20032;-48
2021/04/29 02:06:12;;;;;;;18.70;11.65;;;;;;;5.99;nan;100465.56;5033181;28;20033;-47
2021/04/29 02:08:38;;;;;;;21.45;12.63;;;;;;;5.90;nan;100469.56;5032109;28;20112;-48
2021/04/29 02:11:03;;;;;;;20.77;12.48;;;;;;;5.80;nan;100459.44;5035468;28;20033;-48
2021/04/29 02:13:32;;;;;;;19.80;12.27;;;;;;;5.80;nan;100464.75;5032826;28;20021;-48
2021/04/29 02:16:21;;;;;;;26.38;12.45;;;;;;;5.60;nan;100461.53;5030245;28;20029;-47
2021/04/29 02:18:52;;;;;;;21.27;12.25;;;;;;;5.52;nan;100462.63;5032819;28;20037;-48
2021/04/29 02:21:23;;;;;;;16.88;11.88;;;;;;;5.41;nan;100455.41;5036161;28;20026;-47
2021/04/29 02:23:49;;;;;;;20.08;12.35;;;;;;;5.33;nan;100450.38;5034767;28;20046;-50
2021/04/29 02:26:19;;;;;;;21.10;12.25;;;;;;;5.22;nan;100456.41;5033098;28;20033;-48
2021/04/29 02:28:46;;;;;;;20.10;12.35;;;;;;;5.25;nan;100455.97;5030773;28;20487;-48
2021/04/29 02:31:12;;;;;;;20.77;11.88;;;;;;;5.21;nan;100450.31;5030442;28;20033;-47
2021/04/29 02:33:38;;;;;;;22.33;12.63;;;;;;;5.18;nan;100450.72;5032503;28;20522;-49
2021/04/29 02:36:05;;;;;;;23.08;12.40;;;;;;;5.06;nan;100441.88;5031243;28;20072;-48
2021/04/29 02:38:32;;;;;;;20.33;12.55;;;;;;;4.94;nan;100447.06;5031364;28;20082;-50
2021/04/29 02:40:58;;;;;;;19.35;11.98;;;;;;;4.87;nan;100440.22;5034635;28;20111;-50
2021/04/29 02:43:24;;;;;;;21.35;12.70;;;;;;;4.91;nan;100444.84;5036417;28;20040;-47
2021/04/29 02:45:50;;;;;;;26.08;12.50;;;;;;;4.98;nan;100434.97;5032959;28;20538;-47
2021/04/29 02:48:18;;;;;;;23.92;12.57;;;;;;;5.01;nan;100439.84;5035304;28;20029;-48
2021/04/29 02:50:44;;;;;;;19.60;12.07;;;;;;;4.99;nan;100430.47;5032634;28;20033;-48
2021/04/29 02:53:14;;;;;;;20.33;12.82;;;;;;;4.99;nan;100438.44;5030160;28;20033;-47
2021/04/29 02:55:41;;;;;;;19.83;11.57;;;;;;;5.03;nan;100427.19;5030491;28;20017;-49
2021/04/29 02:58:08;;;;;;;20.63;12.13;;;;;;;5.04;nan;100426.16;5030536;28;20406;-48
2021/04/29 03:00:34;;;;;;;21.30;13.10;;;;;;;5.20;nan;100424.75;5036355;28;20075;-48
2021/04/29 03:03:01;;;;;;;19.40;11.90;;;;;;;5.27;nan;100422.84;5035011;28;20033;-48
2021/04/29 03:05:26;;;;;;;21.70;12.75;;;;;;;5.24;nan;100423.28;5036739;28;20138;-48
2021/04/29 03:07:53;;;;;;;19.25;12.40;;;;;;;5.30;nan;100419.75;5032617;28;20025;-49
2021/04/29 03:10:19;;;;;;;19.77;12.38;;;;;;;5.30;nan;100410.97;5031230;28;20627;-47
2021/04/29 03:12:44;;;;;;;24.98;13.43;;;;;;;5.08;nan;100414.06;5033411;28;20052;-47
2021/04/29 03:15:10;;;;;;;25.52;14.02;;;;;;;5.04;nan;100402.25;5034334;28;20052;-48
2021/04/29 03:17:36;;;;;;;26.70;13.98;;;;;;;5.07;nan;100401.81;5034459;28;20094;-50
2021/04/29 03:20:04;;;;;;;27.58;15.40;;;;;;;5.00;nan;100394.94;5028853;28;20044;-50
2021/04/29 03:22:29;;;;;;;24.52;14.75;;;;;;;5.07;nan;100407.13;5032166;28;20035;-48
2021/04/29 03:24:55;;;;;;;24.17;14.45;;;;;;;5.04;nan;100399.59;5031253;28;20037;-48
2021/04/29 03:27:20;;;;;;;21.67;13.32;;;;;;;5.08;nan;100399.97;5031285;28;20039;-47
2021/04/29 03:29:46;;;;;;;21.13;13.23;;;;;;;5.05;nan;100395.09;5029307;28;20025;-48
2021/04/29 03:32:11;;;;;;;20.65;12.77;;;;;;;5.02;nan;100392.88;5031601;28;20033;-49
2021/04/29 03:34:37;;;;;;;21.55;13.35;;;;;;;5.05;nan;100387.13;5032297;28;20032;-48
2021/04/29 03:37:02;;;;;;;22.30;13.25;;;;;;;5.07;nan;100388.53;5029419;28;20113;-47
2021/04/29 03:39:28;;;;;;;24.35;13.93;;;;;;;5.08;nan;100387.50;5028977;28;20138;-47
2021/04/29 03:41:54;;;;;;;23.80;14.23;;;;;;;5.07;nan;100385.88;5030353;28;20578;-47
2021/04/29 03:44:19;;;;;;;24.70;12.95;;;;;;;5.12;nan;100388.69;5029655;28;20167;-47
2021/04/29 03:46:45;;;;;;;24.90;12.95;;;;;;;5.18;nan;100394.13;5033357;28;20634;-47
2021/04/29 03:49:10;;;;;;;25.25;13.57;;;;;;;5.25;nan;100389.56;5037023;28;20017;-50
2021/04/29 03:51:36;;;;;;;22.90;13.88;;;;;;;5.31;nan;100386.03;5038246;28;20526;-51
2021/04/29 03:54:02;;;;;;;22.40;13.43;;;;;;;5.41;nan;100391.63;5035400;28;20148;-48
2021/04/29 03:56:27;;;;;;;23.10;13.18;;;;;;;5.50;nan;100377.00;5036858;28;20036;-48
2021/04/29 03:58:53;;;;;;;23.52;13.80;;;;;;;5.55;nan;100377.13;5033610;28;20029;-48
2021/04/29 04:01:18;;;;;;;21.27;13.82;;;;;;;5.65;nan;100384.59;5032829;28;20946;-47
2021/04/29 04:03:44;;;;;;;23.67;13.82;;;;;;;5.71;nan;100384.50;5032248;28;20967;-47
2021/04/29 04:06:10;;;;;;;22.63;14.45;;;;;;;5.86;nan;100383.28;5035123;28;20027;-48
2021/04/29 04:08:36;;;;;;;22.58;13.70;;;;;;;5.89;nan;100377.50;5032320;28;20036;-49
2021/04/29 04:11:01;;;;;;;23.20;13.85;;;;;;;6.03;nan;100386.94;5032400;28;20101;-48
2021/04/29 04:13:26;;;;;;;23.90;13.80;;;;;;;6.08;nan;100376.44;5034132;28;20021;-49
2021/04/29 04:15:52;;;;;;;20.73;13.93;;;;;;;6.17;nan;100382.25;5032605;28;20418;-48
2021/04/29 04:18:17;;;;;;;23.77;13.55;;;;;;;6.22;nan;100383.19;5034404;28;20021;-47
2021/04/29 04:20:43;;;;;;;23.20;15.15;;;;;;;6.22;nan;100372.53;5032867;28;20406;-48
2021/04/29 04:23:09;;;;;;;22.60;13.30;;;;;;;6.28;nan;100371.66;5033623;28;20036;-49
2021/04/29 04:25:35;;;;;;;26.00;14.27;;;;;;;6.35;nan;100361.69;5035810;28;20021;-47
2021/04/29 04:28:01;;;;;;;24.95;14.35;;;;;;;6.44;nan;100364.00;5035199;28;20040;-48
2021/04/29 04:30:27;;;;;;;23.13;13.57;;;;;;;6.57;nan;100361.94;5033450;28;20029;-49
2021/04/29 04:32:52;;;;;;;22.60;13.95;;;;;;;6.59;nan;100367.03;5035172;28;20057;-48
2021/04/29 04:35:18;;;;;;;24.50;13.88;;;;;;;6.66;nan;100365.09;5035061;28;20033;-49
2021/04/29 04:37:44;;;;;;;24.48;13.48;;;;;;;6.73;nan;100364.97;5032523;28;20080;-49
2021/04/29 04:40:10;;;;;;;18.65;12.70;;;;;;;6.79;nan;100372.81;5033726;28;20025;-48
2021/04/29 04:42:36;;;;;;;21.02;13.55;;;;;;;6.86;nan;100362.06;5035632;28;20063;-50
2021/04/29 04:45:03;;;;;;;19.85;13.25;;;;;;;6.89;nan;100356.28;5037297;28;20451;-50
2021/04/29 04:47:28;;;;;;;25.20;13.25;;;;;;;6.99;nan;100351.16;5034840;28;20057;-49
2021/04/29 04:49:54;;;;;;;23.60;13.98;;;;;;;7.05;nan;100360.88;5042597;28;20056;-47
2021/04/29 04:52:19;;;;;;;19.95;12.98;;;;;;;7.11;nan;100359.94;5034826;28;20475;-51
2021/04/29 04:54:47;;;;;;;20.40;13.43;;;;;;;7.17;nan;100358.19;5033115;28;20038;-48
2021/04/29 04:57:12;;;;;;;23.27;13.40;;;;;;;7.24;nan;100356.22;5036865;28;20075;-48
2021/04/29 04:59:38;;;;;;;26.05;14.10;;;;;;;7.31;nan;100354.22;5033664;28;20384;-47
2021/04/29 05:02:03;;;;;;;23.80;13.82;;;;;;;7.41;nan;100348.28;5037144;28;20032;-49
2021/04/29 05:04:29;;;;;;;23.67;15.40;;;;;;;7.54;nan;100350.66;5030128;28;20908;-49
2021/04/29 05:06:56;;;;;;;22.67;13.23;;;;;;;7.57;nan;100336.88;5032195;28;20115;-48
2021/04/29 05:09:22;;;;;;;22.55;13.32;;;;;;;7.62;nan;100342.31;5034474;28;20029;-48
2021/04/29 05:11:48;;;;;;;20.20;13.65;;;;;;;7.72;nan;100333.66;5036763;28;20049;-47
2021/04/29 05:14:13;;;;;;;20.00;13.07;;;;;;;7.76;nan;100326.81;5038598;28;20028;-49
2021/04/29 05:16:40;;;;;;;26.00;13.18;;;;;;;7.78;nan;100327.41;5038665;28;20032;-47
2021/04/29 05:19:06;;;;;;;27.00;13.93;;;;;;;7.79;nan;100324.50;5032105;28;20040;-50
2021/04/29 05:21:31;;;;;;;23.52;13.60;;;;;;;7.93;nan;100319.66;5030616;28;20033;-50
2021/04/29 05:23:57;;;;;;;21.92;15.18;;;;;;;8.06;nan;100318.53;5030858;28;20037;-48
2021/04/29 05:26:22;;;;;;;22.50;13.98;;;;;;;8.19;nan;100329.69;5030923;28;20111;-48
2021/04/29 05:28:48;;;;;;;22.00;12.95;;;;;;;8.30;nan;100332.53;5032942;28;20067;-50
2021/04/29 05:31:13;;;;;;;23.38;12.40;;;;;;;8.40;nan;100332.72;5032383;28;20064;-47
2021/04/29 05:33:39;;;;;;;24.25;13.52;;;;;;;8.45;nan;100330.94;5030593;28;20399;-48
2021/04/29 05:36:04;;;;;;;32.88;13.70;;;;;;;8.54;nan;100326.00;5034175;28;20526;-48
2021/04/29 05:38:30;;;;;;;20.77;13.43;;;;;;;8.58;nan;100315.63;5027981;28;20095;-47
2021/04/29 05:40:56;;;;;;;23.98;14.00;;;;;;;8.66;nan;100317.91;5031067;28;20043;-51
2021/04/29 05:43:21;;;;;;;25.45;13.50;;;;;;;8.77;nan;100306.28;5028729;28;20033;-49
2021/04/29 05:45:47;;;;;;;23.02;13.43;;;;;;;8.82;nan;100309.03;5032952;28;20492;-49
2021/04/29 05:48:13;;;;;;;23.00;14.43;;;;;;;8.89;nan;100312.31;5031509;28;20108;-49
2021/04/29 05:50:38;;;;;;;25.35;13.35;;;;;;;8.93;nan;100315.31;5039874;28;20123;-48
2021/04/29 05:53:03;;;;;;;21.88;13.45;;;;;;;8.91;nan;100310.22;5033335;28;20032;-49
2021/04/29 05:55:29;;;;;;;19.30;12.90;;;;;;;9.03;nan;100312.78;5030844;28;20758;-49
2021/04/29 05:57:58;;;;;;;23.27;13.35;;;;;;;8.99;nan;100306.31;5028086;28;20114;-48
2021/04/29 06:00:24;;;;;;;21.40;13.45;;;;;;;9.09;nan;100306.44;5030694;28;20021;-50
2021/04/29 06:02:50;;;;;;;24.70;13.68;;;;;;;9.10;nan;100321.41;5030987;28;20040;-51
2021/04/29 06:05:15;;;;;;;26.17;13.48;;;;;;;9.16;nan;100325.78;5030901;28;20076;-49
2021/04/29 06:07:41;;;;;;;22.52;14.13;;;;;;;8.91;nan;100320.91;5032839;28;20479;-48
2021/04/29 06:10:07;;;;;;;20.45;13.05;;;;;;;8.89;nan;100327.56;5033341;28;20399;-50
2021/04/29 06:12:33;;;;;;;23.42;13.52;;;;;;;9.08;nan;100315.50;5035263;28;20032;-47
2021/04/29 06:14:58;;;;;;;24.80;14.85;;;;;;;9.14;nan;100335.06;5030403;28;20102;-49
2021/04/29 06:17:24;;;;;;;24.08;14.50;;;;;;;8.94;nan;100340.97;5034381;28;20028;-48
2021/04/29 06:19:49;;;;;;;21.65;13.85;;;;;;;9.01;nan;100333.59;5030634;28;20423;-48
2021/04/29 06:22:15;;;;;;;19.40;13.05;;;;;;;9.09;nan;100327.81;5029511;28;20040;-48
2021/04/29 06:24:40;;;;;;;22.90;13.52;;;;;;;9.06;nan;100341.66;5033278;28;20041;-47
2021/04/29 06:27:06;;;;;;;22.73;14.20;;;;;;;9.11;nan;100352.41;5031112;28;20033;-50
2021/04/29 06:29:34;;;;;;;25.98;14.15;;;;;;;9.18;nan;100326.34;5032618;28;20029;-48
2021/04/29 06:32:00;;;;;;;22.08;14.07;;;;;;;9.24;nan;100313.84;5033026;28;20116;-48
2021/04/29 06:34:25;;;;;;;21.27;13.52;;;;;;;9.28;nan;100323.78;5031396;28;20542;-47
2021/04/29 06:36:51;;;;;;;22.58;13.43;;;;;;;9.42;nan;100318.03;5028754;28;20123;-49
2021/04/29 06:39:19;;;;;;;30.08;14.52;;;;;;;9.46;nan;100348.56;5032136;28;20029;-47
2021/04/29 06:41:44;;;;;;;22.33;14.45;;;;;;;9.45;nan;100338.94;5031294;28;20037;-50
2021/04/29 06:44:10;;;;;;;26.02;14.27;;;;;;;9.57;nan;100331.59;5032402;28;20029;-50
2021/04/29 06:46:36;;;;;;;23.10;12.48;;;;;;;9.71;nan;100334.69;5031391;28;20168;-50
2021/04/29 06:49:02;;;;;;;23.40;12.77;;;;;;;9.81;nan;100335.56;5027563;28;20033;-49
2021/04/29 06:51:28;;;;;;;21.98;12.65;;;;;;;9.90;nan;100343.97;5029398;28;20029;-48
2021/04/29 06:53:53;;;;;;;24.17;12.75;;;;;;;10.00;nan;100344.84;5033645;28;20032;-48
2021/04/29 06:56:19;;;;;;;21.08;12.90;;;;;;;10.07;nan;100346.53;5034560;28;20635;-50
2021/04/29 06:58:44;;;;;;;26.52;14.48;;;;;;;10.09;nan;100339.06;5033923;28;20037;-49
2021/04/29 07:01:10;;;;;;;19.55;12.55;;;;;;;10.06;nan;100332.34;5033795;28;20064;-48
2021/04/29 07:03:35;;;;;;;21.80;13.02;;;;;;;9.98;nan;100330.91;5031012;28;20033;-47
2021/04/29 07:06:02;;;;;;;21.15;13.55;;;;;;;9.96;nan;100334.91;5028653;28;20029;-47
2021/04/29 07:08:28;;;;;;;21.75;13.85;;;;;;;9.92;nan;100325.78;5027627;28;20145;-48
2021/04/29 07:10:53;;;;;;;22.40;13.82;;;;;;;9.92;nan;100318.56;5030147;28;20135;-49
2021/04/29 07:13:19;;;;;;;25.25;14.90;;;;;;;9.91;nan;100333.00;5028748;28;20087;-48
2021/04/29 07:15:44;;;;;;;23.42;14.55;;;;;;;9.86;nan;100338.28;5031489;28;20035;-48
2021/04/29 07:18:10;;;;;;;23.85;14.13;;;;;;;9.91;nan;100330.34;5033870;28;20139;-48
2021/04/29 07:20:37;;;;;;;20.20;13.27;;;;;;;9.91;nan;100335.69;5030981;28;20040;-48
2021/04/29 07:23:04;;;;;;;24.98;13.38;;;;;;;9.98;nan;100325.56;5035624;28;20400;-50
2021/04/29 07:25:31;;;;;;;21.52;14.65;;;;;;;10.08;nan;100334.75;5033834;28;20104;-48
2021/04/29 07:27:56;;;;;;;21.02;13.52;;;;;;;10.14;nan;100334.53;5032011;28;20044;-48
2021/04/29 07:30:22;;;;;;;24.35;14.00;;;;;;;10.19;nan;100331.09;5033025;28;20024;-49
2021/04/29 07:32:48;;;;;;;23.40;13.77;;;;;;;10.24;nan;100337.34;5031824;28;20081;-48
2021/04/29 07:35:14;;;;;;;22.38;13.13;;;;;;;10.25;nan;100336.28;5033061;28;20040;-48
2021/04/29 07:37:39;;;;;;;24.35;14.18;;;;;;;10.32;nan;100330.69;5031635;28;20029;-48
2021/04/29 07:40:06;;;;;;;25.27;13.77;;;;;;;10.41;nan;100328.34;5026912;28;20036;-49
2021/04/29 07:42:31;;;;;;;26.35;14.35;;;;;;;10.49;nan;100330.56;5031767;28;20104;-48
2021/04/29 07:44:57;;;;;;;22.80;14.05;;;;;;;10.62;nan;100324.75;5029663;28;20468;-48
2021/04/29 07:47:22;;;;;;;24.63;12.98;;;;;;;10.71;nan;100325.88;5025277;28;20071;-49
2021/04/29 07:49:48;;;;;;;23.58;14.25;;;;;;;10.86;nan;100311.75;5027971;28;20025;-48
2021/04/29 07:52:13;;;;;;;26.38;13.82;;;;;;;11.00;nan;100318.25;5028366;28;20041;-48
2021/04/29 07:54:39;;;;;;;28.58;14.00;;;;;;;10.91;nan;100335.91;5029877;28;20025;-48
2021/04/29 07:57:05;;;;;;;25.17;14.85;;;;;;;11.12;nan;100323.41;5030563;28;20017;-48
2021/04/29 07:59:30;;;;;;;27.27;14.20;;;;;;;11.23;nan;100322.38;5029022;28;20033;-48
2021/04/29 08:01:57;;;;;;;25.05;13.85;;;;;;;11.37;nan;100331.56;5027333;28;20097;-49
2021/04/29 08:04:23;;;;;;;21.95;14.98;;;;;;;11.47;nan;100336.13;5033490;28;20159;-48
2021/04/29 08:06:48;;;;;;;22.65;15.57;;;;;;;11.53;nan;100329.72;5027361;28;20033;-49
2021/04/29 08:09:14;;;;;;;27.42;15.82;;;;;;;11.55;nan;100321.41;5026360;28;20033;-49
2021/04/29 08:11:40;;;;;;;25.77;13.43;;;;;;;11.56;nan;100325.72;5029647;28;20376;-50
2021/04/29 08:14:05;;;;;;;24.30;13.48;;;;;;;11.70;nan;100318.78;5030742;28;20029;-49
2021/04/29 08:16:31;;;;;;;24.08;13.82;;;;;;;11.79;nan;100322.56;5026433;28;20087;-51
2021/04/29 08:18:56;;;;;;;27.25;14.88;;;;;;;11.93;nan;100320.97;5026160;28;20125;-48
2021/04/29 08:21:22;;;;;;;23.10;13.63;;;;;;;12.05;nan;100326.91;5034258;28;20029;-49
2021/04/29 08:23:48;;;;;;;23.25;13.63;;;;;;;12.17;nan;100315.88;5028594;28;20045;-48
2021/04/29 08:26:13;;;;;;;25.25;13.73;;;;;;;12.27;nan;100321.25;5019007;28;20082;-50
2021/04/29 08:28:39;;;;;;;24.20;13.73;;;;;;;12.39;nan;100327.16;5029217;28;20034;-51
2021/04/29 08:31:04;;;;;;;22.75;14.55;;;;;;;12.40;nan;100318.03;5027051;28;20021;-49
2021/04/29 08:33:30;;;;;;;27.42;14.52;;;;;;;12.42;nan;100314.25;5032170;28;20411;-49
2021/04/29 08:35:55;;;;;;;19.30;12.82;;;;;;;12.49;nan;100310.22;5032015;28;20032;-48
2021/04/29 08:38:21;;;;;;;20.02;12.98;;;;;;;12.66;nan;100308.03;5033891;28;20033;-48
2021/04/29 08:40:46;;;;;;;22.60;13.10;;;;;;;12.82;nan;100302.63;5031440;28;20025;-48
2021/04/29 08:43:12;;;;;;;24.92;13.93;;;;;;;12.99;nan;100303.91;5031310;28;20497;-48
2021/04/29 08:45:38;;;;;;;21.55;12.55;;;;;;;13.18;nan;100306.00;5032453;28;20061;-49
2021/04/29 08:48:04;;;;;;;22.90;12.77;;;;;;;13.07;nan;100307.09;5032557;28;20112;-48
2021/04/29 08:50:31;;;;;;;20.75;12.82;;;;;;;13.11;nan;100298.22;5031875;28;20108;-48
2021/04/29 08:52:57;;;;;;;21.77;13.50;;;;;;;13.17;nan;100294.41;5032259;28;20390;-48
2021/04/29 08:55:25;;;;;;;29.40;13.55;;;;;;;13.19;nan;100286.91;5033779;28;20029;-49
2021/04/29 08:57:51;;;;;;;24.90;13.10;;;;;;;13.31;nan;100289.28;5037147;28;20471;-48
2021/04/29 09:00:19;;;;;;;20.83;12.98;;;;;;;13.37;nan;100282.78;5031862;28;20108;-48
2021/04/29 09:02:44;;;;;;;23.52;13.38;;;;;;;13.36;nan;100291.13;5029446;28;20041;-48
2021/04/29 09:05:32;;;;;;;20.88;13.95;;;;;;;13.27;nan;100290.88;5035304;28;20458;-48
2021/04/29 09:08:03;;;;;;;19.67;12.68;;;;;;;13.09;nan;100288.78;5037103;28;20041;-48
2021/04/29 09:10:36;;;;;;;20.67;12.73;;;;;;;11.91;nan;100287.41;5034941;28;20545;-48
2021/04/29 09:13:14;;;;;;;21.98;13.60;;;;;;;12.22;nan;100289.03;5035925;28;20033;-49
2021/04/29 09:15:40;;;;;;;19.80;13.00;;;;;;;12.36;nan;100294.63;5035844;28;20040;-49
2021/04/29 09:18:13;;;;;;;22.23;12.90;;;;;;;12.65;nan;100286.81;5035781;28;20025;-48
2021/04/29 09:20:53;;;;;;;22.50;13.60;;;;;;;12.26;nan;100290.09;5036043;28;20026;-49
2021/04/29 09:23:27;;;;;;;19.77;12.80;;;;;;;12.06;nan;100290.09;5034257;28;20028;-48
2021/04/29 09:26:04;;;;;;;20.65;12.95;;;;;;;12.13;nan;100266.47;5034337;28;20035;-49
2021/04/29 09:28:49;;;;;;;20.23;13.15;;;;;;;12.39;nan;100265.38;5032065;28;20056;-50
2021/04/29 09:31:26;;;;;;;20.55;12.45;;;;;;;12.63;nan;100264.78;5033788;28;20037;-48
2021/04/29 09:33:57;;;;;;;21.60;12.20;;;;;;;12.78;nan;100258.56;5036723;28;20036;-48
2021/04/29 09:36:33;;;;;;;19.70;13.27;;;;;;;12.89;nan;100258.22;5032395;28;20056;-48
2021/04/29 09:39:00;;;;;;;20.33;12.82;;;;;;;12.98;nan;100261.16;5034651;28;20492;-48
2021/04/29 09:41:36;;;;;;;22.30;13.73;;;;;;;12.90;nan;100253.66;5036766;28;20039;-48
2021/04/29 09:44:05;;;;;;;18.95;12.98;;;;;;;12.87;nan;100257.69;5033435;28;20433;-48
2021/04/29 09:46:47;;;;;;;22.48;13.80;;;;;;;12.91;nan;100256.06;5033329;28;20067;-49
2021/04/29 09:49:24;;;;;;;19.65;12.65;;;;;;;13.00;nan;100256.31;5033855;28;20049;-49
2021/04/29 09:51:54;;;;;;;18.88;12.45;;;;;;;12.84;nan;100252.88;5031449;28;20064;-48
2021/04/29 09:54:38;;;;;;;26.55;13.30;;;;;;;12.96;nan;100252.56;5030505;28;20029;-48
2021/04/29 09:57:06;;;;;;;19.88;13.65;;;;;;;13.08;nan;100253.03;5030421;28;20029;-48
2021/04/29 09:59:45;;;;;;;22.10;12.38;;;;;;;12.91;nan;100253.38;5029251;28;20021;-49
2021/04/29 10:02:12;;;;;;;16.58;12.35;;;;;;;12.92;nan;100248.78;5029823;28;20186;-49
2021/04/29 10:04:39;;;;;;;16.30;13.15;;;;;;;12.99;nan;100263.56;5026617;28;20025;-49
2021/04/29 10:07:07;;;;;;;17.98;13.00;;;;;;;12.84;nan;100262.81;5026980;28;20072;-48
2021/04/29 10:09:34;;;;;;;20.88;13.23;;;;;;;12.21;nan;100265.94;5027499;28;20040;-48
2021/04/29 10:12:12;;;;;;;17.58;12.02;;;;;;;11.94;nan;100270.75;5032543;28;20033;-49
2021/04/29 10:14:45;;;;;;;16.88;12.05;;;;;;;11.70;nan;100265.91;5027993;28;20483;-48
2021/04/29 10:17:13;;;;;;;19.27;12.98;;;;;;;11.97;nan;100267.53;5028525;28;20021;-48
2021/04/29 10:19:44;;;;;;;19.58;13.07;;;;;;;12.16;nan;100259.75;5029959;28;20037;-50
2021/04/29 10:22:11;;;;;;;19.65;13.10;;;;;;;11.89;nan;100268.09;5033308;28;20075;-49
2021/04/29 10:24:40;;;;;;;19.70;13.07;;;;;;;11.54;nan;100269.63;5031044;28;20035;-49
2021/04/29 10:27:08;;;;;;;21.75;12.57;;;;;;;11.46;nan;100260.22;5029972;28;20124;-48
2021/04/29 10:29:34;;;;;;;18.80;13.63;;;;;;;11.63;nan;100272.59;5030774;28;20513;-49
2021/04/29 10:32:02;;;;;;;21.17;13.88;;;;;;;11.98;nan;100255.72;5031469;28;20025;-48
2021/04/29 10:34:41;;;;;;;21.08;12.77;;;;;;;12.07;nan;100254.94;5047721;28;20025;-48
2021/04/29 10:37:21;;;;;;;20.67;12.52;;;;;;;12.24;nan;100251.97;5032802;28;20130;-48
2021/04/29 10:39:56;;;;;;;19.92;13.50;;;;;;;12.29;nan;100251.13;5029852;28;20036;-49
2021/04/29 10:42:30;;;;;;;20.67;13.48;;;;;;;12.28;nan;100255.72;5032724;28;20025;-48
2021/04/29 10:45:07;;;;;;;24.48;14.52;;;;;;;12.31;nan;100249.78;5029448;28;20070;-48
2021/04/29 10:47:33;;;;;;;20.48;12.85;;;;;;;12.29;nan;100246.56;5033957;28;20029;-48
2021/04/29 10:50:13;;;;;;;21.13;12.63;;;;;;;12.26;nan;100247.13;5034735;28;20024;-48
2021/04/29 10:53:05;;;;;;;19.13;13.07;;;;;;;12.24;nan;100251.97;5038975;28;20079;-48
2021/04/29 10:55:31;;;;;;;19.80;14.18;;;;;;;12.26;nan;100252.50;5035125;28;20064;-48
2021/04/29 10:57:59;;;;;;;20.42;13.50;;;;;;;12.24;nan;100249.28;5037263;28;20108;-49
2021/04/29 11:00:34;;;;;;;19.50;13.82;;;;;;;11.95;nan;100246.34;5037316;28;20470;-48
2021/04/29 11:03:02;;;;;;;20.67;14.20;;;;;;;11.83;nan;100247.66;5036648;28;20032;-48
2021/04/29 11:05:30;;;;;;;21.77;14.18;;;;;;;11.80;nan;100247.13;5038597;28;20130;-50
2021/04/29 11:08:03;;;;;;;26.52;14.65;;;;;;;11.77;nan;100249.53;5035538;28;20039;-48
2021/04/29 11:10:39;;;;;;;21.25;14.43;;;;;;;11.80;nan;100249.81;5029087;28;20025;-48
2021/04/29 11:13:08;;;;;;;19.48;13.32;;;;;;;11.84;nan;100254.66;5028676;28;20035;-48
2021/04/29 11:15:40;;;;;;;22.17;14.35;;;;;;;11.64;nan;100250.03;5026557;28;20277;-50
2021/04/29 11:18:09;;;;;;;21.02;13.32;;;;;;;11.71;nan;100251.41;5026977;28;20028;-49
2021/04/29 11:20:57;;;;;;;20.42;15.30;;;;;;;11.65;nan;100252.47;5026245;28;20029;-49
2021/04/29 11:23:39;;;;;;;22.17;14.38;;;;;;;11.68;nan;100251.94;5027137;28;20029;-49
2021/04/29 11:26:16;;;;;;;22.30;14.98;;;;;;;11.74;nan;100244.69;5026910;28;20149;-48
2021/04/29 11:28:42;;;;;;;25.77;15.82;;;;;;;11.58;nan;100246.56;5026457;28;20110;-48
2021/04/29 11:31:08;;;;;;;23.52;15.00;;;;;;;11.54;nan;100250.84;5026563;28;20055;-49